Time;durP1;ratioP1;P1;durP2;ratioP2;P2;SDS_P1;SDS_P2;PMS_P1;PMS_P2;Temp;Humidity;BMP_temperature;BMP_pressure;BME280_temperature;BME280_humidity;BME280_pressure;Samples;Min_cycle;Max_cycle;Signal;HPM_P1;HPM_P2
2023/01/05 00:01:08;;;;;;;2.33;1.40;;;;;;;8.22;100.00;99824.91;4941799;29;20449;-81
2023/01/05 00:03:36;;;;;;;1.63;1.10;;;;;;;8.12;100.00;99825.13;4957621;28;20047;-80
2023/01/05 00:06:14;;;;;;;2.40;1.00;;;;;;;8.16;100.00;99832.06;4941202;29;20043;-81
2023/01/05 00:08:41;;;;;;;4.50;1.20;;;;;;;8.18;100.00;99830.25;4939800;29;20095;-81
2023/01/05 00:22:29;;;;;;;6.23;1.23;;;;;;;8.19;100.00;99812.69;4958613;28;20147;-82
2023/01/05 00:25:07;;;;;;;4.57;1.10;;;;;;;8.16;100.00;99800.47;4923278;28;20130;-80
2023/01/05 00:27:39;;;;;;;3.07;1.30;;;;;;;8.19;100.00;99800.41;4951576;28;20414;-80
2023/01/05 00:30:07;;;;;;;2.73;1.40;;;;;;;8.16;100.00;99803.13;4931438;28;20078;-80
2023/01/05 00:32:34;;;;;;;6.43;1.50;;;;;;;8.18;100.00;99808.34;4959161;28;20874;-80
2023/01/05 00:35:01;;;;;;;2.63;1.33;;;;;;;8.17;100.00;99818.00;4964752;28;20042;-79
2023/01/05 00:37:31;;;;;;;5.17;1.50;;;;;;;8.16;100.00;99818.91;4957324;28;20066;-80
2023/01/05 00:39:58;;;;;;;4.93;1.53;;;;;;;8.18;100.00;99814.47;4954224;28;20095;-80
2023/01/05 00:42:24;;;;;;;4.80;1.70;;;;;;;8.16;100.00;99821.53;4956062;28;20080;-79
2023/01/05 00:44:51;;;;;;;3.77;1.47;;;;;;;8.27;100.00;99816.00;4973251;28;20057;-79
2023/01/05 00:47:18;;;;;;;1.90;1.20;;;;;;;8.33;100.00;99823.75;4960905;28;20102;-79
2023/01/05 00:49:44;;;;;;;2.83;1.30;;;;;;;8.33;100.00;99815.84;4961716;28;20039;-80
2023/01/05 00:52:11;;;;;;;3.47;1.17;;;;;;;8.27;100.00;99815.13;4948187;29;20055;-79
2023/01/05 00:54:38;;;;;;;3.43;1.50;;;;;;;8.35;100.00;99810.59;4926156;29;20054;-80
2023/01/05 00:57:06;;;;;;;3.53;1.27;;;;;;;8.31;100.00;99804.47;4956184;28;20487;-80
2023/01/05 00:59:32;;;;;;;2.77;1.40;;;;;;;8.29;100.00;99803.66;4957438;28;20047;-81
2023/01/05 01:02:19;;;;;;;5.13;1.33;;;;;;;8.30;100.00;99808.03;4921675;29;20047;-81
2023/01/05 01:04:46;;;;;;;4.13;1.60;;;;;;;8.27;100.00;99802.84;4941823;29;20062;-82
2023/01/05 01:07:13;;;;;;;4.43;1.77;;;;;;;8.27;100.00;99794.94;4935532;29;20079;-83
2023/01/05 01:09:40;;;;;;;3.60;1.40;;;;;;;8.36;100.00;99802.66;4950765;28;20035;-82
2023/01/05 01:12:07;;;;;;;3.17;1.37;;;;;;;8.30;100.00;99802.75;4939380;29;20062;-83
2023/01/05 01:14:33;;;;;;;4.00;1.70;;;;;;;8.34;100.00;99806.19;4928576;28;20036;-82
2023/01/05 01:17:00;;;;;;;3.47;1.40;;;;;;;8.36;100.00;99801.78;4943522;28;20167;-83
2023/01/05 01:19:27;;;;;;;2.97;1.63;;;;;;;8.28;100.00;99804.56;4960039;28;20046;-83
2023/01/05 01:21:54;;;;;;;6.60;2.20;;;;;;;8.34;100.00;99798.31;4955874;28;20121;-82
2023/01/05 01:24:23;;;;;;;3.23;1.40;;;;;;;8.34;100.00;99800.94;4942814;28;20050;-82
2023/01/05 01:26:51;;;;;;;2.97;1.80;;;;;;;8.35;100.00;99794.78;4962127;28;20035;-83
2023/01/05 01:29:17;;;;;;;7.40;2.37;;;;;;;8.35;100.00;99800.06;4960302;28;20089;-83
2023/01/05 01:31:46;;;;;;;4.27;1.63;;;;;;;8.39;100.00;99794.66;4932752;28;20047;-83
2023/01/05 01:34:13;;;;;;;4.87;2.03;;;;;;;8.38;100.00;99799.97;4970333;28;20043;-83
2023/01/05 01:36:40;;;;;;;4.97;1.73;;;;;;;8.40;100.00;99801.66;4946355;28;20045;-83
2023/01/05 01:39:08;;;;;;;6.13;2.57;;;;;;;8.49;100.00;99797.06;4963172;28;20094;-82
2023/01/05 01:41:35;;;;;;;4.17;2.20;;;;;;;8.50;100.00;99801.44;4931874;29;20965;-83
2023/01/05 01:44:02;;;;;;;5.63;2.10;;;;;;;8.53;100.00;99803.97;4951322;28;20039;-83
2023/01/05 01:46:28;;;;;;;9.20;2.93;;;;;;;8.54;100.00;99805.72;4946757;28;20043;-82
2023/01/05 01:48:59;;;;;;;4.47;2.00;;;;;;;8.56;100.00;99799.50;4955878;28;20051;-83
2023/01/05 01:51:32;;;;;;;5.13;1.80;;;;;;;8.61;100.00;99802.88;4940604;29;20058;-83
2023/01/05 01:54:02;;;;;;;4.63;1.90;;;;;;;8.65;100.00;99796.63;4934837;29;20094;-83
2023/01/05 01:56:35;;;;;;;8.15;2.25;;;;;;;8.68;100.00;99806.22;4938806;29;20043;-83
2023/01/05 01:59:02;;;;;;;6.80;1.98;;;;;;;8.73;100.00;99812.22;5029517;23;20047;-85
2023/01/05 02:01:29;;;;;;;4.38;2.00;;;;;;;8.71;100.00;99788.56;4927263;29;20052;-85
2023/01/05 02:03:56;;;;;;;5.00;2.13;;;;;;;8.76;100.00;99790.22;4908359;29;20430;-84
2023/01/05 02:06:23;;;;;;;4.63;2.15;;;;;;;8.77;100.00;99795.44;4924259;29;20066;-85
2023/01/05 02:08:50;;;;;;;4.93;2.20;;;;;;;8.80;100.00;99787.44;4926261;29;20043;-84
2023/01/05 02:11:35;;;;;;;4.13;1.73;;;;;;;8.81;100.00;99786.53;4921775;29;20047;-84
2023/01/05 02:14:25;;;;;;;6.13;1.65;;;;;;;8.76;100.00;99787.59;4955449;28;20051;-85
2023/01/05 02:17:10;;;;;;;5.13;1.77;;;;;;;8.87;100.00;99796.91;4905134;29;20050;-85
2023/01/05 02:19:40;;;;;;;5.18;1.67;;;;;;;8.91;100.00;99792.41;4941243;29;20115;-82
2023/01/05 02:22:25;;;;;;;8.65;1.95;;;;;;;8.92;100.00;99795.03;4933237;28;20046;-85
2023/01/05 02:24:57;;;;;;;3.92;1.70;;;;;;;8.92;100.00;99795.03;4937507;29;20542;-84
2023/01/05 02:27:54;;;;;;;6.90;2.78;;;;;;;8.91;100.00;99789.78;4936927;29;20750;-84
2023/01/05 02:30:52;;;;;;;3.28;1.70;;;;;;;8.92;100.00;99792.41;4920778;28;20047;-84
2023/01/05 02:33:43;;;;;;;4.75;1.55;;;;;;;8.96;100.00;99790.53;4938324;29;20043;-83
2023/01/05 02:36:26;;;;;;;5.18;2.05;;;;;;;8.96;100.00;99787.91;4907251;29;20426;-83
2023/01/05 02:38:56;;;;;;;;;;;;;;;8.96;100.00;99783.50;4908882;29;20043;-84
2023/01/05 02:41:27;;;;;;;5.47;2.85;;;;;;;8.94;100.00;99780.03;4907309;29;19934;-84
2023/01/05 02:43:55;;;;;;;2.92;1.38;;;;;;;8.94;100.00;99793.22;4908092;29;20040;-84
2023/01/05 02:46:22;;;;;;;3.40;1.58;;;;;;;8.95;100.00;99779.13;4919016;29;20051;-83
2023/01/05 02:48:51;;;;;;;4.75;1.70;;;;;;;8.98;100.00;99789.56;4939783;28;20463;-83
2023/01/05 02:51:23;;;;;;;7.03;2.03;;;;;;;8.94;100.00;99782.69;4926163;29;20043;-85
2023/01/05 02:54:00;;;;;;;3.28;1.33;;;;;;;8.89;100.00;99779.28;4908261;29;20039;-84
2023/01/05 02:56:32;;;;;;;5.53;1.63;;;;;;;8.96;100.00;99780.00;4918471;29;20039;-83
2023/01/05 02:59:11;;;;;;;8.05;1.98;;;;;;;8.94;100.00;99780.03;4906643;29;20052;-83
2023/01/05 03:01:41;;;;;;;5.22;1.70;;;;;;;8.90;100.00;99798.59;4912541;29;20498;-85
2023/01/05 03:04:12;;;;;;;3.53;1.60;;;;;;;8.89;100.00;99803.00;4913649;29;20075;-84
2023/01/05 03:06:57;;;;;;;4.22;1.90;;;;;;;8.92;100.00;99825.78;4933324;29;20504;-84
2023/01/05 03:09:26;;;;;;;6.82;1.45;;;;;;;8.91;100.00;99809.13;4935607;29;20099;-82
2023/01/05 03:15:07;;;;;;;3.50;1.20;;;;;;;8.95;100.00;99815.16;4931982;29;20483;-83
2023/01/05 03:17:39;;;;;;;4.18;1.88;;;;;;;8.97;100.00;99818.59;4912518;29;20692;-84
2023/01/05 03:20:07;;;;;;;6.78;1.75;;;;;;;8.93;100.00;99814.34;4925436;29;20055;-84
2023/01/05 03:37:01;;;;;;;2.97;1.50;;;;;;;8.88;100.00;99832.88;4941836;29;20077;-82
2023/01/05 03:39:29;;;;;;;3.42;1.35;;;;;;;8.84;100.00;99827.75;4919821;29;20385;-81
2023/01/05 03:41:56;;;;;;;5.50;1.63;;;;;;;8.78;100.00;99833.19;4903440;29;20044;-82
2023/01/05 03:44:23;;;;;;;3.17;1.20;;;;;;;8.75;100.00;99836.75;4931148;29;20047;-82
2023/01/05 03:46:50;;;;;;;4.43;1.30;;;;;;;8.85;100.00;99853.19;4908096;29;20102;-82
2023/01/05 03:49:17;;;;;;;2.35;1.10;;;;;;;8.88;100.00;99853.09;4910040;29;20051;-83
2023/01/05 03:51:43;;;;;;;3.28;1.38;;;;;;;8.85;100.00;99846.16;4958545;28;20047;-81
2023/01/05 03:54:10;;;;;;;3.92;1.27;;;;;;;8.83;100.00;99847.97;4926774;29;20486;-81
2023/01/05 03:56:37;;;;;;;4.47;1.40;;;;;;;8.89;100.00;99862.72;4925194;29;20498;-82
2023/01/05 03:59:04;;;;;;;3.35;1.52;;;;;;;8.89;100.00;99854.81;4915760;29;20047;-81
2023/01/05 04:01:30;;;;;;;3.70;1.80;;;;;;;8.72;100.00;99861.38;4931449;29;20052;-81
2023/01/05 04:03:57;;;;;;;2.58;1.42;;;;;;;8.79;100.00;99864.75;4900541;29;20691;-82
2023/01/05 04:06:24;;;;;;;3.88;1.50;;;;;;;8.86;100.00;99868.94;4922325;29;20414;-82
2023/01/05 04:08:50;;;;;;;2.83;1.10;;;;;;;8.86;100.00;99882.13;4925233;29;20054;-81
2023/01/05 04:11:19;;;;;;;5.57;1.27;;;;;;;8.81;100.00;99872.59;4928861;29;20159;-81
2023/01/05 04:13:46;;;;;;;3.17;1.60;;;;;;;8.87;100.00;99881.22;4922587;29;20043;-81
2023/01/05 04:16:13;;;;;;;3.33;1.10;;;;;;;8.82;100.00;99875.19;4920292;29;20050;-81
2023/01/05 04:18:40;;;;;;;3.63;1.30;;;;;;;8.68;100.00;99878.19;4906814;29;20135;-81
2023/01/05 04:21:07;;;;;;;2.17;1.35;;;;;;;8.68;100.00;99872.91;4919063;28;20048;-83
2023/01/05 04:23:34;;;;;;;6.43;1.83;;;;;;;8.76;100.00;99878.00;4939662;29;20047;-82
2023/01/05 04:26:00;;;;;;;2.80;1.20;;;;;;;8.69;100.00;99864.13;4915612;29;20046;-81
2023/01/05 04:28:27;;;;;;;5.63;1.65;;;;;;;8.67;100.00;99865.06;4894958;29;20044;-82
2023/01/05 04:30:54;;;;;;;3.67;1.60;;;;;;;8.61;100.00;99865.22;4917911;29;20044;-82
2023/01/05 04:33:22;;;;;;;4.28;1.98;;;;;;;8.57;100.00;99868.81;4917861;29;20044;-81
2023/01/05 04:35:49;;;;;;;3.73;1.43;;;;;;;8.58;100.00;99870.56;4923206;29;20039;-82
2023/01/05 04:38:16;;;;;;;1.67;1.00;;;;;;;8.57;100.00;99881.97;4932914;29;20046;-82
2023/01/05 04:40:47;;;;;;;2.63;1.15;;;;;;;8.57;100.00;99880.19;4910728;29;20051;-82
2023/01/05 04:43:14;;;;;;;3.17;1.20;;;;;;;8.60;100.00;99874.00;4929839;29;20044;-82
2023/01/05 04:45:40;;;;;;;5.30;1.98;;;;;;;8.60;100.00;99874.00;4903357;29;20515;-81
2023/01/05 04:48:07;;;;;;;3.88;1.20;;;;;;;8.64;100.00;99873.03;4916717;29;20504;-82
2023/01/05 04:50:34;;;;;;;2.45;1.23;;;;;;;8.66;100.00;99884.38;4900124;29;20048;-82
2023/01/05 04:53:00;;;;;;;2.85;1.33;;;;;;;8.63;100.00;99887.09;4935703;29;20051;-82
2023/01/05 04:55:27;;;;;;;3.85;1.10;;;;;;;8.64;100.00;99896.72;4918371;29;20039;-82
2023/01/05 04:57:54;;;;;;;4.97;1.98;;;;;;;8.64;100.00;99892.31;4918986;29;20339;-81
2023/01/05 05:00:20;;;;;;;2.35;1.30;;;;;;;8.57;100.00;99889.88;4902626;29;20048;-81
2023/01/05 05:02:48;;;;;;;4.47;1.73;;;;;;;8.57;100.00;99889.88;4915806;29;20484;-81
2023/01/05 05:05:14;;;;;;;3.83;1.20;;;;;;;8.59;100.00;99893.34;4915628;29;20062;-82
2023/01/05 05:07:41;;;;;;;2.45;1.00;;;;;;;8.55;100.00;99895.19;4901104;29;20055;-81
2023/01/05 05:10:08;;;;;;;3.17;1.50;;;;;;;8.50;100.00;99897.06;4931414;29;20049;-82
2023/01/05 05:12:35;;;;;;;3.53;1.10;;;;;;;8.35;100.00;99898.31;4910411;29;20102;-81
2023/01/05 05:15:01;;;;;;;4.17;1.23;;;;;;;8.42;100.00;99897.25;4926342;29;20043;-81
2023/01/05 05:17:28;;;;;;;1.63;1.00;;;;;;;8.46;100.00;99904.16;4902960;29;20062;-81
2023/01/05 05:19:55;;;;;;;1.90;1.17;;;;;;;8.45;100.00;99902.44;4925558;29;20087;-81
2023/01/05 05:22:21;;;;;;;3.17;1.10;;;;;;;8.41;100.00;99895.53;4924414;29;20048;-81
2023/01/05 05:24:48;;;;;;;1.77;1.10;;;;;;;8.41;100.00;99903.44;4914338;29;20039;-82
2023/01/05 05:27:15;;;;;;;1.80;1.07;;;;;;;8.50;100.00;99909.38;4932181;29;20043;-81
2023/01/05 05:29:41;;;;;;;4.60;1.67;;;;;;;8.43;100.00;99901.63;4904412;29;20047;-81
2023/01/05 05:32:08;;;;;;;2.20;0.90;;;;;;;8.40;100.00;99899.03;4917055;29;20040;-79
2023/01/05 05:34:35;;;;;;;3.27;1.07;;;;;;;8.44;100.00;99892.81;4928356;29;20082;-80
2023/01/05 05:37:01;;;;;;;1.75;1.00;;;;;;;8.39;100.00;99899.94;4910795;29;20051;-80
2023/01/05 05:39:28;;;;;;;4.10;1.00;;;;;;;8.39;100.00;99906.97;4901915;29;21624;-81
2023/01/05 05:41:55;;;;;;;1.57;0.93;;;;;;;8.40;100.00;99906.06;4921390;29;20047;-81
2023/01/05 05:44:21;;;;;;;4.27;1.10;;;;;;;8.38;100.00;99910.50;4934500;29;20090;-81
2023/01/05 05:46:48;;;;;;;3.20;1.40;;;;;;;8.44;100.00;99913.00;4929384;29;20051;-80
2023/01/05 05:49:15;;;;;;;2.53;1.20;;;;;;;8.48;100.00;99922.53;4938964;29;20050;-81
2023/01/05 05:51:41;;;;;;;2.10;1.03;;;;;;;8.38;100.00;99921.03;4937873;29;20043;-82
2023/01/05 05:54:08;;;;;;;2.67;1.30;;;;;;;8.43;100.00;99935.84;4938367;29;20039;-82
2023/01/05 05:56:35;;;;;;;2.93;1.10;;;;;;;8.41;100.00;99932.38;4896392;29;20044;-81
2023/01/05 05:59:01;;;;;;;2.58;1.00;;;;;;;8.37;100.00;99935.97;4915592;29;20399;-82
2023/01/05 06:01:28;;;;;;;2.50;1.23;;;;;;;8.32;100.00;99931.66;4900336;29;20044;-82
2023/01/05 06:03:55;;;;;;;1.30;0.90;;;;;;;8.32;100.00;99932.53;4900063;29;20046;-82
2023/01/05 06:06:22;;;;;;;2.10;0.80;;;;;;;8.33;100.00;99926.41;4915446;29;20044;-82
2023/01/05 06:08:48;;;;;;;2.37;1.13;;;;;;;8.31;100.00;99948.34;4899658;29;20044;-82
2023/01/05 06:11:15;;;;;;;2.97;1.60;;;;;;;8.31;100.00;99941.31;4900892;29;20086;-82
2023/01/05 06:13:42;;;;;;;2.13;0.90;;;;;;;8.28;100.00;99940.53;4916843;29;20066;-83
2023/01/05 06:16:09;;;;;;;2.17;0.90;;;;;;;8.15;100.00;99932.91;4899490;29;20048;-83
2023/01/05 06:18:36;;;;;;;1.70;0.90;;;;;;;8.16;100.00;99937.31;4918250;29;20044;-83
2023/01/05 06:21:02;;;;;;;4.73;2.30;;;;;;;8.06;100.00;99948.91;4922045;28;20039;-83
2023/01/05 06:23:29;;;;;;;2.37;0.90;;;;;;;8.03;99.87;99950.75;4914721;29;20048;-83
2023/01/05 06:25:56;;;;;;;9.57;1.10;;;;;;;7.93;100.00;99957.09;4900734;29;20048;-83
2023/01/05 06:28:24;;;;;;;2.63;0.80;;;;;;;7.94;100.00;99950.94;4916580;29;20044;-83
2023/01/05 06:30:51;;;;;;;2.10;0.97;;;;;;;7.86;100.00;99959.00;4944244;28;20043;-83
2023/01/05 06:33:17;;;;;;;4.57;1.00;;;;;;;7.84;100.00;99959.03;4943790;28;20047;-83
2023/01/05 06:35:44;;;;;;;2.43;0.83;;;;;;;7.83;100.00;99962.56;4919835;29;20065;-82
2023/01/05 06:38:11;;;;;;;2.60;1.07;;;;;;;7.78;100.00;99968.78;4921809;29;20419;-84
2023/01/05 06:40:39;;;;;;;3.40;1.17;;;;;;;7.73;100.00;99975.91;4910052;29;20102;-83
2023/01/05 06:43:06;;;;;;;4.13;1.10;;;;;;;7.61;100.00;99988.41;4900686;29;20491;-84
2023/01/05 06:45:32;;;;;;;1.67;1.00;;;;;;;7.59;100.00;99987.56;4939764;29;20114;-83
2023/01/05 06:47:59;;;;;;;4.47;1.10;;;;;;;7.58;100.00;99992.84;4941176;29;20070;-83
2023/01/05 06:50:26;;;;;;;2.03;1.50;;;;;;;7.59;100.00;99986.69;4930877;29;20047;-83
2023/01/05 06:52:53;;;;;;;2.50;1.33;;;;;;;7.69;100.00;99992.66;4902681;29;20091;-84
2023/01/05 06:55:20;;;;;;;1.67;1.37;;;;;;;7.75;100.00;99990.75;4919789;29;20051;-83
2023/01/05 06:57:47;;;;;;;3.83;2.00;;;;;;;7.75;100.00;99993.41;4899494;29;20655;-84
2023/01/05 07:00:14;;;;;;;2.57;1.30;;;;;;;7.77;100.00;99993.38;4908894;29;20051;-83
2023/01/05 07:02:41;;;;;;;4.87;1.17;;;;;;;7.73;100.00;100004.81;4928024;29;20043;-82
2023/01/05 07:05:08;;;;;;;2.23;1.00;;;;;;;7.65;100.00;100006.72;4936205;29;20937;-83
2023/01/05 07:07:35;;;;;;;2.20;1.00;;;;;;;7.67;100.00;100012.84;4924566;29;20588;-83
2023/01/05 07:10:03;;;;;;;3.90;1.20;;;;;;;7.69;100.00;100018.94;4939605;28;20040;-84
2023/01/05 07:12:29;;;;;;;3.43;1.47;;;;;;;7.67;98.80;100026.84;4896325;29;20412;-82
2023/01/05 07:14:56;;;;;;;3.73;1.10;;;;;;;7.71;99.30;100018.00;4903996;29;20048;-82
2023/01/05 07:17:23;;;;;;;2.13;0.90;;;;;;;7.75;97.79;100032.84;4915280;29;20047;-84
2023/01/05 07:19:50;;;;;;;2.60;1.13;;;;;;;7.77;99.33;100022.28;4910859;29;20054;-82
2023/01/05 07:22:17;;;;;;;8.53;1.50;;;;;;;7.66;99.87;100033.00;4932115;29;20090;-83
2023/01/05 07:24:44;;;;;;;3.30;1.10;;;;;;;7.67;96.25;100033.88;4922958;29;20047;-83
2023/01/05 07:27:10;;;;;;;3.13;1.00;;;;;;;7.77;93.53;100033.66;4913707;29;20050;-83
2023/01/05 07:29:37;;;;;;;2.17;1.13;;;;;;;7.76;95.78;100045.09;4917169;29;20609;-82
2023/01/05 07:32:03;;;;;;;5.27;1.17;;;;;;;7.75;94.62;100047.75;4901022;29;20111;-83
2023/01/05 07:34:30;;;;;;;4.90;1.30;;;;;;;7.75;94.48;100056.50;4898381;29;20036;-82
2023/01/05 07:36:57;;;;;;;2.77;1.17;;;;;;;7.80;91.85;100043.25;4897369;29;20058;-84
2023/01/05 07:39:23;;;;;;;2.87;1.20;;;;;;;7.75;93.98;100053.00;4916640;29;20455;-84
2023/01/05 07:41:50;;;;;;;3.73;1.30;;;;;;;7.79;91.70;100050.28;4898643;29;20040;-83
2023/01/05 07:44:17;;;;;;;2.00;1.17;;;;;;;7.73;90.90;100045.13;4902799;29;20039;-84
2023/01/05 07:46:43;;;;;;;6.17;1.50;;;;;;;7.80;93.20;100040.63;4909685;29;20130;-85
2023/01/05 07:49:10;;;;;;;2.83;1.40;;;;;;;7.80;93.14;100052.00;4913671;29;20048;-85
2023/01/05 07:51:37;;;;;;;2.77;1.37;;;;;;;7.75;94.04;100051.25;4913127;29;20562;-84
2023/01/05 07:54:04;;;;;;;2.97;1.20;;;;;;;7.83;94.87;100051.09;4914016;29;20043;-83
2023/01/05 07:56:30;;;;;;;3.67;1.00;;;;;;;7.82;94.64;100062.53;4915094;29;20050;-84
2023/01/05 07:58:58;;;;;;;3.67;1.20;;;;;;;7.77;94.04;100057.34;4916133;29;20044;-84
2023/01/05 08:01:24;;;;;;;4.40;0.93;;;;;;;7.83;93.89;100059.00;4923384;29;20044;-84
2023/01/05 08:03:51;;;;;;;4.47;1.53;;;;;;;7.77;93.27;100054.69;4916084;29;20079;-84
2023/01/05 08:06:19;;;;;;;3.97;1.23;;;;;;;7.84;94.26;100056.31;4933840;29;20063;-83
2023/01/05 08:08:46;;;;;;;4.63;1.67;;;;;;;7.79;93.88;100068.69;4928053;29;20043;-83
2023/01/05 08:11:14;;;;;;;3.77;1.17;;;;;;;7.83;95.17;100065.13;4931316;29;20047;-81
2023/01/05 08:14:01;;;;;;;1.80;1.00;;;;;;;7.86;92.79;100079.97;4924349;29;20048;-85
2023/01/05 08:16:30;;;;;;;3.73;1.10;;;;;;;7.91;92.66;100070.25;4943097;29;20055;-84
2023/01/05 08:18:57;;;;;;;3.73;0.93;;;;;;;7.85;92.26;100081.72;4929325;29;20036;-84
2023/01/05 08:21:24;;;;;;;3.57;1.37;;;;;;;7.86;91.89;100072.06;4903551;29;20051;-83
2023/01/05 08:23:52;;;;;;;2.17;1.07;;;;;;;7.92;90.56;100073.72;4935274;29;20062;-82
2023/01/05 08:26:21;;;;;;;4.00;1.17;;;;;;;7.96;91.62;100081.50;4919905;29;20488;-83
2023/01/05 08:28:49;;;;;;;3.33;1.07;;;;;;;7.98;92.29;100089.38;4932613;29;20582;-82
2023/01/05 08:31:19;;;;;;;1.83;1.00;;;;;;;7.96;92.08;100091.16;4938151;29;20522;-83
2023/01/05 08:33:45;;;;;;;1.97;1.20;;;;;;;7.94;91.27;100100.88;4912559;29;20146;-83
2023/01/05 08:36:15;;;;;;;2.60;0.90;;;;;;;7.89;91.41;100095.66;4925319;29;20490;-83
2023/01/05 08:38:48;;;;;;;3.43;1.07;;;;;;;7.92;92.91;100100.91;4920581;29;20043;-82
2023/01/05 08:41:27;;;;;;;2.77;0.97;;;;;;;7.93;92.11;100104.38;4925860;29;20051;-83
2023/01/05 08:43:55;;;;;;;3.60;1.20;;;;;;;7.97;92.81;100099.03;4921861;29;20718;-83
2023/01/05 08:46:25;;;;;;;3.13;1.00;;;;;;;7.94;91.91;100121.91;4927154;29;20044;-84
2023/01/05 08:48:54;;;;;;;3.13;0.90;;;;;;;7.96;91.45;100113.09;4920115;29;20043;-83
2023/01/05 08:51:20;;;;;;;2.53;1.10;;;;;;;7.93;93.54;100120.19;4924379;29;20051;-84
2023/01/05 08:53:47;;;;;;;2.83;1.00;;;;;;;7.90;95.29;100121.06;4907224;29;20043;-83
2023/01/05 08:56:14;;;;;;;2.73;1.23;;;;;;;7.91;93.24;100117.56;4919353;29;20598;-83
2023/01/05 08:58:41;;;;;;;2.97;1.00;;;;;;;7.96;91.96;100123.59;4927071;29;20039;-83
2023/01/05 09:01:13;;;;;;;3.43;0.93;;;;;;;7.95;93.12;100099.97;4924538;28;20047;-81
2023/01/05 09:03:40;;;;;;;3.83;1.67;;;;;;;7.90;93.26;100105.28;4912537;29;20619;-83
2023/01/05 09:06:10;;;;;;;2.90;1.00;;;;;;;7.88;94.79;100110.59;4915687;29;20508;-83
2023/01/05 09:08:38;;;;;;;3.83;1.10;;;;;;;7.86;94.65;100122.03;4917152;29;20052;-82
2023/01/05 09:11:12;;;;;;;2.27;0.87;;;;;;;7.92;95.37;100119.31;4934717;29;20048;-83
2023/01/05 09:13:39;;;;;;;;;;;;;;;7.93;95.37;100114.91;4920010;29;20043;-84
2023/01/05 09:16:07;;;;;;;3.83;2.10;;;;;;;7.92;95.21;100113.19;4903671;29;19923;-83
2023/01/05 09:18:34;;;;;;;3.23;1.10;;;;;;;7.95;96.47;100127.13;4919298;29;20415;-84
2023/01/05 09:21:02;;;;;;;3.00;1.10;;;;;;;8.02;97.72;100115.59;4919511;29;20047;-84
2023/01/05 09:23:28;;;;;;;5.20;1.47;;;;;;;8.08;96.95;100138.31;4933716;29;20130;-84
2023/01/05 09:25:55;;;;;;;1.87;1.00;;;;;;;8.12;96.41;100111.03;4910520;29;20035;-83
2023/01/05 09:28:22;;;;;;;3.87;1.17;;;;;;;8.11;96.48;100132.97;4920041;29;20105;-80
2023/01/05 09:30:48;;;;;;;2.97;1.20;;;;;;;8.16;96.51;100131.13;4920117;29;20043;-81
2023/01/05 09:33:16;;;;;;;2.17;1.00;;;;;;;8.15;95.52;100137.28;4935005;29;20740;-81
2023/01/05 09:35:43;;;;;;;3.83;1.20;;;;;;;8.10;94.43;100126.84;4919383;29;20042;-81
2023/01/05 09:38:10;;;;;;;5.07;1.07;;;;;;;8.12;95.97;100151.38;4919157;29;20032;-81
2023/01/05 09:40:40;;;;;;;2.23;1.10;;;;;;;8.13;95.76;100152.22;4903089;29;20146;-83
2023/01/05 09:43:13;;;;;;;3.43;1.53;;;;;;;8.10;95.87;100147.03;4915111;29;20055;-81
2023/01/05 09:45:40;;;;;;;7.73;4.30;;;;;;;8.13;96.18;100155.72;4907408;29;20569;-80
2023/01/05 09:48:09;;;;;;;7.20;2.77;;;;;;;8.13;96.50;100160.13;4937642;29;20047;-82
2023/01/05 09:50:35;;;;;;;5.57;1.30;;;;;;;8.12;94.87;100147.88;4904918;29;20533;-81
2023/01/05 09:53:03;;;;;;;5.37;1.20;;;;;;;8.14;95.71;100152.19;4921576;29;20058;-81
2023/01/05 09:55:31;;;;;;;4.33;1.30;;;;;;;8.12;97.10;100171.53;4920901;29;20044;-81
2023/01/05 09:58:02;;;;;;;5.03;2.20;;;;;;;8.09;94.89;100174.25;4933509;29;20046;-82
2023/01/05 10:00:29;;;;;;;5.73;1.80;;;;;;;8.10;96.08;100178.59;4909114;29;20048;-81
2023/01/05 10:02:58;;;;;;;6.87;2.07;;;;;;;8.12;96.19;100182.94;4922112;29;20138;-81
2023/01/05 10:05:27;;;;;;;5.03;1.83;;;;;;;8.14;96.35;100185.53;4937422;29;20680;-81
2023/01/05 10:08:01;;;;;;;2.57;1.23;;;;;;;8.17;94.67;100188.13;4907257;29;20042;-82
2023/01/05 10:10:36;;;;;;;;;;;;;;;8.23;95.68;100193.25;4918541;29;20059;-82
2023/01/05 10:13:07;;;;;;;5.75;1.30;;;;;;;8.19;94.19;100183.69;4899568;29;19934;-82
2023/01/05 10:15:45;;;;;;;5.73;1.20;;;;;;;8.21;95.84;100187.16;4903397;29;20047;-81
2023/01/05 10:18:15;;;;;;;4.00;2.00;;;;;;;8.21;95.34;100194.19;4902210;29;20048;-82
2023/01/05 10:20:53;;;;;;;4.43;1.40;;;;;;;8.27;92.13;100189.69;4919002;29;20039;-81
2023/01/05 10:24:02;;;;;;;6.03;1.73;;;;;;;8.32;91.90;100194.84;4918680;29;20218;-81
2023/01/05 10:26:43;;;;;;;3.60;1.30;;;;;;;8.34;91.58;100208.88;4922693;29;20052;-81
2023/01/05 10:29:43;;;;;;;2.30;1.33;;;;;;;8.32;92.52;100195.72;4925432;29;20118;-81
2023/01/05 10:32:18;;;;;;;2.77;1.23;;;;;;;8.29;91.82;100201.06;5044185;23;20067;-79
2023/01/05 10:34:55;;;;;;;12.37;3.20;;;;;;;8.31;91.34;100241.34;4944492;28;20043;-81
2023/01/05 10:37:37;;;;;;;2.03;1.20;;;;;;;8.30;91.95;100225.59;4959212;28;20075;-80
2023/01/05 10:40:27;;;;;;;5.83;1.83;;;;;;;8.40;90.85;100224.56;4968172;28;20110;-81
2023/01/05 10:43:38;;;;;;;3.10;1.23;;;;;;;8.46;88.76;100224.47;4953507;28;20462;-81
2023/01/05 10:46:09;;;;;;;4.03;1.50;;;;;;;8.42;89.00;100231.56;4925023;29;20086;-81
2023/01/05 10:48:56;;;;;;;4.83;1.57;;;;;;;8.42;88.19;100246.50;4925184;29;20094;-83
2023/01/05 10:51:22;;;;;;;5.07;2.00;;;;;;;8.42;86.42;100249.13;4919474;29;20042;-81
2023/01/05 10:53:49;;;;;;;5.53;1.30;;;;;;;8.44;86.06;100248.19;4916978;29;20039;-82
2023/01/05 10:56:24;;;;;;;3.10;1.53;;;;;;;8.40;86.42;100249.13;4930834;29;20047;-81
2023/01/05 10:59:09;;;;;;;4.27;1.30;;;;;;;8.41;86.32;100257.91;4913272;29;20048;-81
2023/01/05 11:01:37;;;;;;;3.43;1.50;;;;;;;8.30;85.02;100268.56;4938510;29;20510;-83
2023/01/05 11:04:17;;;;;;;1.75;1.10;;;;;;;8.35;83.09;100264.16;4920602;29;20058;-81
2023/01/05 11:07:05;;;;;;;4.18;1.40;;;;;;;8.31;82.51;100306.28;4913652;29;20670;-81
2023/01/05 11:09:32;;;;;;;2.73;1.00;;;;;;;8.34;81.70;100277.31;4897034;29;20055;-81
2023/01/05 11:12:01;;;;;;;2.10;1.20;;;;;;;8.33;78.73;100286.09;4915339;28;20437;-81
2023/01/05 11:14:32;;;;;;;1.57;0.80;;;;;;;8.35;77.49;100293.09;4919092;29;20054;-80
2023/01/05 11:17:04;;;;;;;2.70;1.00;;;;;;;8.42;78.40;100305.25;4948765;28;20064;-82
2023/01/05 11:19:36;;;;;;;1.90;0.93;;;;;;;8.36;76.99;100315.03;4934090;29;20040;-80
2023/01/05 11:22:03;;;;;;;4.80;2.30;;;;;;;8.39;76.05;100323.72;4904900;29;20055;-80
2023/01/05 11:24:34;;;;;;;3.13;1.37;;;;;;;8.40;76.87;100336.00;4950981;29;20039;-79
2023/01/05 11:27:04;;;;;;;7.47;6.73;;;;;;;8.21;75.20;100334.53;4937188;29;20040;-79
2023/01/05 11:29:31;;;;;;;6.13;4.80;;;;;;;8.36;76.91;100342.22;4917511;29;20044;-81
2023/01/05 11:32:03;;;;;;;2.37;1.00;;;;;;;8.30;74.90;100342.28;4954635;28;20052;-80
2023/01/05 11:34:33;;;;;;;3.63;0.93;;;;;;;8.33;75.19;100349.28;4933851;29;20039;-80
2023/01/05 11:37:02;;;;;;;3.60;1.73;;;;;;;8.36;75.94;100350.09;4936306;28;20503;-79
2023/01/05 11:39:45;;;;;;;2.20;1.10;;;;;;;8.38;76.96;100365.88;4935231;29;20052;-79
2023/01/05 11:42:17;;;;;;;2.87;1.63;;;;;;;8.38;76.68;100353.56;4936474;28;20451;-80
2023/01/05 11:44:58;;;;;;;3.80;2.90;;;;;;;8.32;77.69;100356.25;4908005;29;20055;-80
2023/01/05 11:47:28;;;;;;;3.37;1.30;;;;;;;8.17;76.24;100374.97;4938412;29;20403;-79
2023/01/05 11:50:01;;;;;;;3.57;2.63;;;;;;;8.28;77.08;100380.03;4917346;29;20415;-80
2023/01/05 11:52:37;;;;;;;3.97;1.00;;;;;;;8.16;77.01;100392.50;4937844;29;20135;-81
2023/01/05 11:55:19;;;;;;;6.87;4.40;;;;;;;8.17;77.88;100396.00;4932923;29;20082;-79
2023/01/05 11:57:47;;;;;;;2.80;0.90;;;;;;;7.94;76.14;100398.97;4950139;28;20127;-79
2023/01/05 12:00:27;;;;;;;1.40;0.87;;;;;;;7.94;78.11;100424.41;4938390;29;20044;-81
2023/01/05 12:03:33;;;;;;;1.00;0.60;;;;;;;7.70;78.96;100428.22;4921288;29;20055;-82
2023/01/05 12:06:26;;;;;;;2.13;0.80;;;;;;;7.58;79.91;100437.13;4920019;29;20052;-80
2023/01/05 12:08:56;;;;;;;3.43;1.27;;;;;;;7.43;80.85;100448.69;4939123;29;20384;-79
2023/01/05 12:11:23;;;;;;;4.67;1.00;;;;;;;7.50;81.43;100444.22;4920149;29;20047;-79
2023/01/05 12:14:11;;;;;;;2.53;0.93;;;;;;;7.37;80.07;100455.75;4920027;29;20051;-83
2023/01/05 12:16:54;;;;;;;1.90;1.07;;;;;;;7.37;81.98;100471.53;4929722;29;20569;-80